createdAt,value
2022-11-16T00:03:55.888Z,10.39
2022-11-16T00:09:23.278Z,10.37
2022-11-16T00:14:32.401Z,10.35
2022-11-16T00:19:34.682Z,10.34
2022-11-16T00:24:38.485Z,10.36
2022-11-16T00:29:40.167Z,10.37
2022-11-16T00:34:42.234Z,10.38
2022-11-16T00:39:45.034Z,10.38
2022-11-16T00:44:47.650Z,10.40
2022-11-16T00:49:50.277Z,10.43
2022-11-16T00:54:52.816Z,10.43
2022-11-16T00:59:54.820Z,10.42
2022-11-16T01:04:57.844Z,10.41
2022-11-16T01:09:59.635Z,10.39
2022-11-16T01:15:08.922Z,10.37
2022-11-16T01:20:14.771Z,10.36
2022-11-16T01:25:18.831Z,10.31
2022-11-16T01:30:25.212Z,10.29
2022-11-16T01:35:42.508Z,10.27
2022-11-16T01:40:45.109Z,10.27
2022-11-16T01:45:47.153Z,10.27
2022-11-16T01:50:50.219Z,10.25
2022-11-16T01:55:57.155Z,10.23
2022-11-16T02:01:15.706Z,10.22
2022-11-16T02:06:26.406Z,10.20
2022-11-16T02:12:07.727Z,10.14
2022-11-16T02:17:33.516Z,10.11
2022-11-16T02:22:58.358Z,10.11
2022-11-16T02:28:12.022Z,10.09
2022-11-16T02:33:19.019Z,10.09
2022-11-16T02:38:29.747Z,10.06
2022-11-16T02:43:39.388Z,10.04
2022-11-16T02:48:48.253Z,10.04
2022-11-16T02:54:09.591Z,10.02
2022-11-16T02:59:17.546Z,10.01
2022-11-16T03:04:38.195Z,9.99
2022-11-16T03:09:46.245Z,9.97
2022-11-16T03:14:55.007Z,9.97
2022-11-16T03:20:02.584Z,9.94
2022-11-16T03:25:12.859Z,9.87
2022-11-16T03:30:24.629Z,9.83
2022-11-16T03:35:44.608Z,9.78
2022-11-16T03:40:49.692Z,9.75
2022-11-16T03:45:51.743Z,9.71
2022-11-16T03:50:55.788Z,9.67
2022-11-16T03:56:00.790Z,9.64
2022-11-16T04:01:05.911Z,9.61
2022-11-16T04:06:29.660Z,9.58
2022-11-16T04:11:50.074Z,9.55
2022-11-16T04:17:24.042Z,9.52
2022-11-16T04:22:51.702Z,9.49
2022-11-16T04:28:13.026Z,9.45
2022-11-16T04:33:35.959Z,9.41
2022-11-16T04:38:37.819Z,9.37
2022-11-16T04:43:42.454Z,9.36
2022-11-16T04:48:47.520Z,9.32
2022-11-16T04:53:54.146Z,9.29
2022-11-16T04:58:57.998Z,9.26
2022-11-16T05:04:02.386Z,9.23
2022-11-16T05:09:04.506Z,9.19
2022-11-16T05:14:08.173Z,9.16
2022-11-16T05:19:35.122Z,9.15
2022-11-16T05:24:39.789Z,9.12
2022-11-16T05:29:44.211Z,9.08
2022-11-16T05:34:56.062Z,9.05
2022-11-16T05:40:01.369Z,9.01
2022-11-16T05:45:18.436Z,8.97
2022-11-16T05:50:27.788Z,8.95
2022-11-16T05:55:42.385Z,8.91
2022-11-16T06:00:47.090Z,8.89
2022-11-16T06:05:55.811Z,8.87
2022-11-16T06:11:06.766Z,8.86
2022-11-16T06:16:10.952Z,8.83
2022-11-16T06:21:17.802Z,8.83
2022-11-16T06:26:19.804Z,8.80
2022-11-16T06:31:25.284Z,8.77
2022-11-16T06:36:30.933Z,8.73
2022-11-16T06:41:41.109Z,8.69
2022-11-16T06:46:44.347Z,8.67
2022-11-16T06:51:48.596Z,8.65
2022-11-16T06:56:50.418Z,8.64
2022-11-16T07:01:52.491Z,8.64
2022-11-16T07:06:57.065Z,8.63
2022-11-16T07:12:01.989Z,8.75
2022-11-16T07:17:09.934Z,8.89
2022-11-16T07:22:12.150Z,8.95
2022-11-16T07:27:16.488Z,8.94
2022-11-16T07:32:24.477Z,8.97
2022-11-16T07:37:36.961Z,8.97
2022-11-16T07:42:42.073Z,8.86
2022-11-16T07:47:53.488Z,8.80
2022-11-16T07:53:28.993Z,8.74
2022-11-16T07:58:35.851Z,8.70
2022-11-16T08:03:39.538Z,8.65
2022-11-16T08:08:47.432Z,8.62
2022-11-16T08:13:52.169Z,8.61
2022-11-16T08:18:54.995Z,8.60
2022-11-16T08:23:59.318Z,8.56
2022-11-16T08:29:02.116Z,8.53
2022-11-16T08:34:08.575Z,8.55
2022-11-16T08:39:17.903Z,8.52
2022-11-16T08:44:22.030Z,8.52
2022-11-16T08:49:31.759Z,8.50
2022-11-16T08:54:37.009Z,8.49
2022-11-16T08:59:40.175Z,8.50
2022-11-16T09:04:47.016Z,8.50
2022-11-16T09:09:51.178Z,8.51
2022-11-16T09:14:52.964Z,8.50
2022-11-16T09:19:57.675Z,8.51
2022-11-16T09:24:59.442Z,8.54
2022-11-16T09:30:05.267Z,8.53
2022-11-16T09:35:07.388Z,8.55
2022-11-16T09:40:12.061Z,8.54
2022-11-16T09:45:31.595Z,8.61
2022-11-16T09:50:53.633Z,8.67
2022-11-16T09:56:06.456Z,8.68
2022-11-16T10:01:33.569Z,8.63
2022-11-16T10:06:51.419Z,8.63
2022-11-16T10:12:18.325Z,8.61
2022-11-16T10:17:57.924Z,8.61
2022-11-16T10:23:35.709Z,8.62
2022-11-16T10:28:59.149Z,8.58
2022-11-16T10:34:03.671Z,8.53
2022-11-16T10:39:14.007Z,8.50
2022-11-16T10:44:27.453Z,8.49
2022-11-16T10:49:39.971Z,8.47
2022-11-16T10:54:44.442Z,8.47
2022-11-16T10:59:55.389Z,8.48
2022-11-16T11:05:03.130Z,8.50
2022-11-16T11:10:31.064Z,8.52
2022-11-16T11:15:33.815Z,8.47
2022-11-16T11:20:39.057Z,8.49
2022-11-16T11:25:49.732Z,8.49
2022-11-16T11:30:54.366Z,8.44
2022-11-16T11:35:58.334Z,8.44
2022-11-16T11:41:05.043Z,8.43
2022-11-16T11:46:15.581Z,8.42
2022-11-16T11:51:43.418Z,8.43
2022-11-16T11:56:47.764Z,8.38
2022-11-16T12:01:52.210Z,8.36
2022-11-16T12:07:34.451Z,8.33
2022-11-16T12:12:58.647Z,8.32
2022-11-16T12:18:06.496Z,8.28
2022-11-16T12:23:33.510Z,8.27
2022-11-16T12:28:51.518Z,8.27
2022-11-16T12:34:17.157Z,8.29
2022-11-16T12:39:34.009Z,8.32
2022-11-16T12:45:03.553Z,8.35
2022-11-16T12:50:30.423Z,8.32
2022-11-16T12:55:43.069Z,8.32
2022-11-16T13:01:19.669Z,8.30
2022-11-16T13:06:28.500Z,8.30
2022-11-16T13:11:35.900Z,8.24
2022-11-16T13:16:38.687Z,8.25
2022-11-16T13:22:05.687Z,8.21
2022-11-16T13:27:29.447Z,8.24
2022-11-16T13:32:42.655Z,8.27
2022-11-16T13:37:46.109Z,8.31
2022-11-16T13:43:00.981Z,8.34
2022-11-16T13:48:16.634Z,8.25
2022-11-16T13:58:55.675Z,8.03
2022-11-16T14:04:35.959Z,7.97
2022-11-16T14:09:45.541Z,7.91
2022-11-16T14:15:12.014Z,7.81
2022-11-16T14:20:22.269Z,7.72
2022-11-16T14:25:39.804Z,7.70
2022-11-16T14:31:24.787Z,7.69
2022-11-16T14:36:39.134Z,7.67
2022-11-16T14:41:44.629Z,7.65
2022-11-16T14:46:46.494Z,7.64
2022-11-16T14:51:57.308Z,7.60
2022-11-16T14:57:02.293Z,7.60
2022-11-16T15:02:21.162Z,7.58
2022-11-16T15:07:23.148Z,7.56
2022-11-16T15:12:43.131Z,7.53
2022-11-16T15:17:47.417Z,7.51
2022-11-16T15:22:54.838Z,7.49
2022-11-16T15:28:01.068Z,7.47
2022-11-16T15:33:13.055Z,7.45
2022-11-16T15:38:18.720Z,7.40
2022-11-16T15:43:25.378Z,7.37
2022-11-16T15:48:28.742Z,7.57
2022-11-16T15:53:41.304Z,7.46
2022-11-16T15:58:43.455Z,7.39
2022-11-16T16:03:56.005Z,7.32
2022-11-16T16:09:06.948Z,7.27
2022-11-16T16:14:21.801Z,7.24
2022-11-16T16:19:34.169Z,7.22
2022-11-16T16:24:42.419Z,7.21
2022-11-16T16:29:48.820Z,7.20
2022-11-16T16:34:51.990Z,7.19
2022-11-16T16:39:57.093Z,7.18
2022-11-16T16:44:59.668Z,7.17
2022-11-16T16:50:01.648Z,7.20
2022-11-16T16:55:04.168Z,7.21
2022-11-16T17:00:13.602Z,7.18
2022-11-16T17:05:15.827Z,7.17
2022-11-16T17:10:20.116Z,7.16
2022-11-16T17:15:27.458Z,7.18
2022-11-16T17:20:29.344Z,7.17
2022-11-16T17:25:35.889Z,7.18
2022-11-16T17:30:40.418Z,7.20
2022-11-16T17:35:55.173Z,7.20
2022-11-16T17:41:13.793Z,7.45
2022-11-16T17:46:20.255Z,7.35
2022-11-16T17:51:25.732Z,7.31
2022-11-16T17:56:30.883Z,7.26
2022-11-16T18:01:35.879Z,7.25
2022-11-16T18:06:38.213Z,7.25
2022-11-16T18:11:40.053Z,7.24
2022-11-16T18:16:44.519Z,7.22
2022-11-16T18:21:47.173Z,7.23
2022-11-16T18:26:53.786Z,7.24
2022-11-16T18:32:02.787Z,7.25
2022-11-16T18:37:06.303Z,7.23
2022-11-16T18:42:12.649Z,7.25
2022-11-16T18:47:14.377Z,7.24
2022-11-16T18:52:16.119Z,7.23
2022-11-16T18:57:17.978Z,7.20
2022-11-16T19:02:20.055Z,7.16
2022-11-16T19:07:26.917Z,7.13
2022-11-16T19:12:30.453Z,7.12
2022-11-16T19:17:48.160Z,7.10
2022-11-16T19:23:00.229Z,7.07
2022-11-16T19:28:07.396Z,7.04
2022-11-16T19:33:11.674Z,7.00
2022-11-16T19:38:13.900Z,6.98
2022-11-16T19:43:16.436Z,6.97
2022-11-16T19:48:18.234Z,6.95
2022-11-16T19:53:19.995Z,6.91
2022-11-16T19:58:21.860Z,6.88
2022-11-16T20:03:25.952Z,6.87
2022-11-16T20:08:30.103Z,6.85
2022-11-16T20:13:32.228Z,6.83
2022-11-16T20:18:37.315Z,6.81
2022-11-16T20:23:45.668Z,6.83
2022-11-16T20:28:51.137Z,6.80
2022-11-16T20:33:57.771Z,6.78
2022-11-16T20:39:17.376Z,6.77
2022-11-16T20:44:21.949Z,6.77
2022-11-16T20:49:25.780Z,6.75
2022-11-16T20:54:29.917Z,6.74
2022-11-16T20:59:31.927Z,6.74
2022-11-16T21:04:33.739Z,6.82
2022-11-16T21:09:55.503Z,6.78
2022-11-16T21:14:59.725Z,6.71
2022-11-16T21:20:25.822Z,6.70
2022-11-16T21:25:25.597Z,6.69
2022-11-16T21:30:27.277Z,6.67
2022-11-16T21:35:31.565Z,6.67
2022-11-16T21:40:36.439Z,6.64
2022-11-16T21:45:38.182Z,6.64
2022-11-16T21:50:40.085Z,6.63
2022-11-16T21:55:50.950Z,6.65
2022-11-16T22:00:56.725Z,6.63
2022-11-16T22:06:22.147Z,6.64
2022-11-16T22:11:26.029Z,6.64
2022-11-16T22:16:34.620Z,6.65
2022-11-16T22:21:36.328Z,6.64
2022-11-16T22:26:39.843Z,6.64
2022-11-16T22:31:41.502Z,6.64
2022-11-16T22:36:45.881Z,6.63
2022-11-16T22:41:52.440Z,6.61
2022-11-16T22:46:57.168Z,6.61
2022-11-16T22:51:58.896Z,6.62
2022-11-16T22:57:03.441Z,6.59
2022-11-16T23:02:08.685Z,6.60
2022-11-16T23:07:12.645Z,6.60
2022-11-16T23:12:35.265Z,6.59
2022-11-16T23:17:38.935Z,6.58
2022-11-16T23:22:59.292Z,6.57
2022-11-16T23:28:03.946Z,6.56
2022-11-16T23:33:07.959Z,6.56
2022-11-16T23:38:14.116Z,6.55
2022-11-16T23:43:34.401Z,6.55
2022-11-16T23:48:38.559Z,6.55
2022-11-16T23:53:44.814Z,6.54
2022-11-16T23:58:49.290Z,6.52
